createdAt,value
2024-01-10T00:01:55.761Z,8.48
2024-01-10T00:04:25.678Z,7.40
2024-01-10T00:06:55.494Z,8.50
2024-01-10T00:09:25.589Z,8.40
2024-01-10T00:12:00.908Z,8.38
2024-01-10T00:14:30.753Z,8.13
2024-01-10T00:17:00.691Z,7.85
2024-01-10T00:19:30.521Z,8.27
2024-01-10T00:22:00.329Z,8.30
2024-01-10T00:24:30.170Z,7.78
2024-01-10T00:27:02.493Z,8.30
2024-01-10T00:29:32.583Z,8.48
2024-01-10T00:32:03.248Z,7.40
2024-01-10T00:34:33.178Z,7.93
2024-01-10T00:37:02.942Z,9.00
2024-01-10T00:39:32.679Z,7.80
2024-01-10T00:42:05.101Z,8.18
2024-01-10T00:44:34.872Z,7.38
2024-01-10T00:47:04.662Z,8.52
2024-01-10T00:49:34.556Z,8.20
2024-01-10T00:52:04.408Z,7.97
2024-01-10T00:54:34.253Z,7.55
2024-01-10T00:57:07.308Z,8.25
2024-01-10T00:59:37.142Z,8.50
2024-01-10T01:02:04.815Z,7.45
2024-01-10T01:04:34.628Z,7.63
2024-01-10T01:07:04.666Z,7.97
2024-01-10T01:09:34.624Z,8.07
2024-01-10T01:12:07.945Z,7.90
2024-01-10T01:14:38.279Z,8.00
2024-01-10T01:17:08.143Z,7.90
2024-01-10T01:19:38.008Z,7.93
2024-01-10T01:22:07.965Z,8.55
2024-01-10T01:24:37.856Z,8.10
2024-01-10T01:27:10.508Z,8.02
2024-01-10T01:29:40.304Z,7.80
2024-01-10T01:32:10.397Z,7.68
2024-01-10T01:34:40.335Z,7.95
2024-01-10T01:37:10.923Z,7.97
2024-01-10T01:39:40.787Z,8.50
2024-01-10T01:42:13.241Z,7.78
2024-01-10T01:44:45.611Z,6.82
2024-01-10T01:47:15.855Z,7.38
2024-01-10T01:49:46.675Z,8.32
2024-01-10T01:52:16.823Z,7.13
2024-01-10T01:54:46.739Z,7.28
2024-01-10T01:57:19.097Z,7.38
2024-01-10T01:59:48.904Z,7.65
2024-01-10T02:02:19.105Z,7.97
2024-01-10T02:04:53.554Z,6.93
2024-01-10T02:07:24.522Z,7.28
2024-01-10T02:09:54.841Z,7.47
2024-01-10T02:12:28.090Z,8.15
2024-01-10T02:14:57.939Z,6.93
2024-01-10T02:17:28.517Z,7.22
2024-01-10T02:20:12.113Z,7.50
2024-01-10T02:22:42.092Z,7.38
2024-01-10T02:25:14.937Z,7.63
2024-01-10T02:27:45.358Z,8.43
2024-01-10T02:30:15.771Z,7.40
2024-01-10T02:32:45.647Z,8.10
2024-01-10T02:35:15.831Z,7.72
2024-01-10T02:37:46.232Z,7.85
2024-01-10T02:40:18.993Z,8.02
2024-01-10T02:42:49.012Z,8.40
2024-01-10T02:45:18.991Z,7.60
2024-01-10T02:47:49.408Z,7.88
2024-01-10T02:50:19.533Z,8.18
2024-01-10T02:52:49.504Z,7.97
2024-01-10T02:55:22.107Z,7.45
2024-01-10T02:57:52.012Z,8.00
2024-01-10T03:00:22.178Z,9.07
2024-01-10T03:02:51.945Z,7.63
2024-01-10T03:05:21.903Z,8.25
2024-01-10T03:07:51.868Z,8.30
2024-01-10T03:10:24.385Z,8.68
2024-01-10T03:12:54.495Z,8.40
2024-01-10T03:15:24.580Z,9.32
2024-01-10T03:17:54.448Z,8.43
2024-01-10T03:20:24.407Z,8.40
2024-01-10T03:22:54.299Z,8.68
2024-01-10T03:25:26.799Z,7.47
2024-01-10T03:27:56.763Z,8.25
2024-01-10T03:30:26.866Z,7.65
2024-01-10T03:32:56.955Z,8.52
2024-01-10T03:35:27.074Z,8.70
2024-01-10T03:37:57.026Z,9.02
2024-01-10T03:40:29.434Z,8.75
2024-01-10T03:42:59.509Z,8.43
2024-01-10T03:45:30.027Z,9.02
2024-01-10T03:47:59.849Z,8.45
2024-01-10T03:50:29.732Z,8.90
2024-01-10T03:52:59.607Z,8.98
2024-01-10T03:55:33.921Z,9.13
2024-01-10T03:58:03.889Z,7.97
2024-01-10T04:00:33.742Z,8.93
2024-01-10T04:03:04.888Z,8.88
2024-01-10T04:05:34.841Z,9.10
2024-01-10T04:08:05.238Z,8.73
2024-01-10T04:10:37.777Z,8.68
2024-01-10T04:13:07.997Z,8.77
2024-01-10T04:15:38.679Z,9.77
2024-01-10T04:18:09.094Z,8.50
2024-01-10T04:20:39.088Z,9.18
2024-01-10T04:23:09.126Z,8.50
2024-01-10T04:25:41.667Z,8.50
2024-01-10T04:28:11.495Z,8.23
2024-01-10T04:30:41.336Z,8.15
2024-01-10T04:33:13.968Z,7.93
2024-01-10T04:35:43.758Z,8.63
2024-01-10T04:38:13.561Z,9.05
2024-01-10T04:40:48.214Z,8.23
2024-01-10T04:43:18.106Z,8.40
2024-01-10T04:45:47.948Z,8.57
2024-01-10T04:48:17.851Z,8.25
2024-01-10T04:50:50.489Z,7.95
2024-01-10T04:53:20.365Z,7.65
2024-01-10T04:55:52.896Z,8.45
2024-01-10T04:58:22.671Z,7.78
2024-01-10T05:00:52.559Z,8.05
2024-01-10T05:03:22.815Z,7.82
2024-01-10T05:05:52.840Z,7.78
2024-01-10T05:08:23.248Z,7.57
2024-01-10T05:10:55.991Z,8.02
2024-01-10T05:13:26.333Z,7.38
2024-01-10T05:15:56.680Z,8.50
2024-01-10T05:18:26.749Z,8.63
2024-01-10T05:20:56.586Z,7.97
2024-01-10T05:23:26.505Z,7.97
2024-01-10T05:26:02.200Z,7.80
2024-01-10T05:28:31.996Z,7.93
2024-01-10T05:31:03.325Z,8.20
2024-01-10T05:33:33.337Z,8.57
2024-01-10T05:36:04.062Z,8.27
2024-01-10T05:38:38.437Z,9.27
2024-01-10T05:41:11.269Z,8.20
2024-01-10T05:43:42.142Z,9.00
2024-01-10T05:46:12.063Z,8.32
2024-01-10T05:48:42.981Z,8.98
2024-01-10T05:51:13.544Z,9.15
2024-01-10T05:53:43.444Z,8.88
2024-01-10T05:56:18.122Z,9.73
2024-01-10T05:58:48.332Z,8.07
2024-01-10T06:01:18.296Z,9.18
2024-01-10T06:03:48.365Z,9.07
2024-01-10T06:06:19.667Z,9.73
2024-01-10T06:08:52.320Z,8.02
2024-01-10T06:11:25.019Z,7.63
2024-01-10T06:13:57.596Z,8.18
2024-01-10T06:16:28.331Z,8.40
2024-01-10T06:19:01.201Z,8.40
2024-01-10T06:21:31.164Z,8.45
2024-01-10T06:24:01.027Z,8.30
2024-01-10T06:26:33.755Z,8.20
2024-01-10T06:29:03.818Z,8.63
2024-01-10T06:31:33.825Z,8.32
2024-01-10T06:34:03.661Z,8.77
2024-01-10T06:36:33.467Z,8.55
2024-01-10T06:39:03.248Z,8.70
2024-01-10T06:41:35.803Z,8.35
2024-01-10T06:44:06.941Z,11.05
2024-01-10T06:46:36.992Z,8.93
2024-01-10T06:49:08.712Z,9.30
2024-01-10T06:51:43.740Z,8.43
2024-01-10T06:54:15.077Z,9.13
2024-01-10T06:56:48.210Z,8.15
2024-01-10T06:59:18.649Z,8.47
2024-01-10T07:01:48.631Z,9.40
2024-01-10T07:04:20.604Z,8.43
2024-01-10T07:06:51.464Z,8.68
2024-01-10T07:09:21.764Z,8.68
2024-01-10T07:11:54.366Z,8.57
2024-01-10T07:14:24.358Z,8.45
2024-01-10T07:16:57.395Z,8.63
2024-01-10T07:19:27.515Z,9.68
2024-01-10T07:22:02.116Z,9.80
2024-01-10T07:24:35.759Z,8.80
2024-01-10T07:27:09.147Z,9.40
2024-01-10T07:29:39.172Z,8.98
2024-01-10T07:32:16.183Z,8.38
2024-01-10T07:34:46.504Z,8.40
2024-01-10T07:37:22.383Z,9.65
2024-01-10T07:39:52.764Z,7.80
2024-01-10T07:42:25.986Z,7.53
2024-01-10T07:44:57.002Z,8.20
2024-01-10T07:47:29.486Z,7.07
2024-01-10T07:49:59.755Z,7.00
2024-01-10T07:52:30.127Z,7.68
2024-01-10T07:55:00.209Z,8.60
2024-01-10T07:57:33.749Z,8.23
2024-01-10T08:00:05.368Z,8.38
2024-01-10T08:02:40.508Z,8.15
2024-01-10T08:05:12.308Z,8.95
2024-01-10T08:07:42.319Z,9.05
2024-01-10T08:10:20.215Z,9.45
2024-01-10T08:12:54.013Z,9.75
2024-01-10T08:15:24.097Z,9.75
2024-01-10T08:17:54.129Z,8.57
2024-01-10T08:20:24.152Z,10.20
2024-01-10T08:22:54.901Z,10.23
2024-01-10T08:25:24.841Z,8.50
2024-01-10T08:27:58.926Z,9.35
2024-01-10T08:32:58.597Z,8.73
2024-01-10T08:35:29.176Z,9.00
2024-01-10T08:37:59.494Z,9.40
2024-01-10T08:40:29.425Z,8.75
2024-01-10T08:43:02.636Z,8.77
2024-01-10T08:45:33.576Z,9.10
2024-01-10T08:48:06.269Z,9.02
2024-01-10T08:50:36.558Z,8.93
2024-01-10T08:53:07.351Z,9.00
2024-01-10T08:55:38.518Z,9.20
2024-01-10T08:58:11.285Z,8.85
2024-01-10T09:00:41.625Z,9.55
2024-01-10T09:03:11.579Z,10.38
2024-01-10T09:05:43.478Z,12.18
2024-01-10T09:08:17.335Z,12.23
2024-01-10T09:10:47.229Z,11.77
2024-01-10T09:13:20.036Z,10.50
2024-01-10T09:15:49.861Z,10.68
2024-01-10T09:18:20.004Z,17.10
2024-01-10T09:20:49.880Z,19.92
2024-01-10T09:23:20.224Z,15.80
2024-01-10T09:25:50.086Z,13.25
2024-01-10T09:28:22.534Z,12.30
2024-01-10T09:30:53.021Z,11.18
2024-01-10T09:33:24.060Z,10.48
2024-01-10T09:35:53.923Z,10.68
2024-01-10T09:38:24.030Z,9.60
2024-01-10T09:40:53.882Z,9.50
2024-01-10T09:43:26.271Z,10.15
2024-01-10T09:45:57.402Z,9.30
2024-01-10T09:48:27.452Z,9.57
2024-01-10T09:50:57.395Z,10.18
2024-01-10T09:53:28.767Z,9.60
2024-01-10T09:56:02.497Z,10.20
2024-01-10T09:58:40.440Z,10.27
2024-01-10T10:01:10.749Z,11.23
2024-01-10T10:03:42.088Z,10.50
2024-01-10T10:06:15.081Z,11.73
2024-01-10T10:08:46.026Z,10.98
2024-01-10T10:11:16.454Z,10.70
2024-01-10T10:13:48.893Z,11.18
2024-01-10T10:16:29.440Z,11.20
2024-01-10T10:18:59.996Z,10.90
2024-01-10T10:21:31.909Z,10.68
2024-01-10T10:24:04.181Z,14.68
2024-01-10T10:26:36.953Z,13.73
2024-01-10T10:29:09.412Z,11.43
2024-01-10T10:31:40.016Z,11.45
2024-01-10T10:34:10.046Z,10.60
2024-01-10T10:36:40.070Z,10.90
2024-01-10T10:39:14.810Z,9.18
2024-01-10T10:41:45.294Z,9.77
2024-01-10T10:44:22.222Z,9.50
2024-01-10T10:47:05.506Z,8.85
2024-01-10T10:49:50.797Z,8.55
2024-01-10T10:52:21.175Z,8.38
2024-01-10T10:54:52.195Z,9.18
2024-01-10T10:57:22.321Z,8.07
2024-01-10T10:59:56.184Z,8.50
2024-01-10T11:02:31.266Z,8.60
2024-01-10T11:05:02.631Z,8.57
2024-01-10T11:07:32.786Z,7.70
2024-01-10T11:10:03.904Z,8.30
2024-01-10T11:12:47.301Z,8.20
2024-01-10T11:15:25.476Z,8.60
2024-01-10T11:18:11.060Z,8.48
2024-01-10T11:20:55.180Z,8.27
2024-01-10T11:23:41.270Z,8.60
2024-01-10T11:26:12.134Z,9.48
2024-01-10T11:28:42.135Z,8.55
2024-01-10T11:31:14.858Z,8.80
2024-01-10T11:34:03.637Z,8.45
2024-01-10T11:37:03.767Z,9.02
2024-01-10T12:22:20.629Z,10.27
2024-01-10T12:24:53.772Z,10.68
2024-01-10T12:27:27.192Z,10.65
2024-01-10T12:29:57.586Z,10.73
2024-01-10T12:32:27.540Z,11.70
2024-01-10T12:35:04.706Z,11.25
2024-01-10T12:37:35.071Z,12.18
2024-01-10T12:40:09.746Z,11.30
2024-01-10T12:42:44.489Z,10.93
2024-01-10T12:45:24.809Z,10.83
2024-01-10T12:47:57.877Z,11.40
2024-01-10T12:50:28.970Z,11.15
2024-01-10T12:52:59.343Z,11.48
2024-01-10T12:55:30.471Z,11.45
2024-01-10T12:58:08.098Z,11.20
2024-01-10T13:00:38.992Z,12.35
2024-01-10T13:03:08.983Z,11.95
2024-01-10T13:05:39.056Z,12.40
2024-01-10T13:08:09.318Z,11.93
2024-01-10T13:10:39.331Z,13.25
2024-01-10T13:13:11.863Z,12.25
2024-01-10T13:15:41.971Z,12.05
2024-01-10T13:18:12.512Z,11.68
2024-01-10T13:20:42.503Z,11.45
2024-01-10T13:23:12.583Z,10.40
2024-01-10T13:25:42.873Z,10.75
2024-01-10T13:28:16.611Z,12.75
2024-01-10T13:30:47.050Z,10.80
2024-01-10T13:33:17.485Z,11.82
2024-01-10T13:35:47.651Z,11.77
2024-01-10T13:38:19.948Z,11.90
2024-01-10T13:40:50.005Z,11.18
2024-01-10T13:43:22.513Z,10.75
2024-01-10T13:45:53.602Z,10.80
2024-01-10T13:51:16.881Z,10.82
2024-01-10T13:53:55.670Z,11.50
2024-01-10T13:56:25.980Z,10.65
2024-01-10T13:59:01.663Z,12.13
2024-01-10T14:01:35.099Z,12.48
2024-01-10T14:04:11.370Z,10.60
2024-01-10T14:06:48.824Z,11.18
2024-01-10T14:09:21.868Z,10.82
2024-01-10T14:11:52.646Z,11.60
2024-01-10T14:14:26.431Z,11.13
2024-01-10T14:16:56.924Z,11.70
2024-01-10T14:19:27.460Z,11.55
2024-01-10T14:21:57.232Z,11.13
2024-01-10T14:24:29.073Z,11.38
2024-01-10T14:26:59.886Z,11.20
2024-01-10T14:29:34.932Z,11.20
2024-01-10T14:32:17.046Z,11.88
2024-01-10T14:34:48.458Z,11.77
2024-01-10T14:37:18.685Z,11.73
2024-01-10T14:39:48.679Z,12.45
2024-01-10T14:42:21.063Z,12.55
2024-01-10T14:44:53.503Z,12.68
2024-01-10T14:47:24.090Z,12.07
2024-01-10T14:49:54.099Z,32.85
2024-01-10T14:52:23.994Z,15.20
2024-01-10T14:54:53.822Z,20.05
2024-01-10T14:57:23.605Z,11.98
2024-01-10T14:59:56.331Z,13.52
2024-01-10T15:02:26.355Z,13.60
2024-01-10T15:04:56.648Z,12.52
2024-01-10T15:07:27.656Z,60.63
2024-01-10T15:09:59.860Z,22.60
2024-01-10T15:12:30.517Z,38.88
2024-01-10T15:15:03.536Z,91.97
2024-01-10T15:17:33.499Z,68.35
2024-01-10T15:20:03.741Z,97.10
2024-01-10T15:22:34.125Z,16.33
2024-01-10T15:25:03.941Z,154.77
2024-01-10T15:27:34.129Z,64.85
2024-01-10T15:30:15.696Z,38.78
2024-01-10T15:32:47.477Z,14.55
2024-01-10T15:35:17.796Z,14.68
2024-01-10T15:37:48.355Z,14.98
2024-01-10T15:40:18.218Z,14.27
2024-01-10T15:42:48.131Z,14.48
2024-01-10T15:45:20.733Z,14.32
2024-01-10T15:47:50.657Z,14.88
2024-01-10T15:50:21.164Z,15.25
2024-01-10T15:52:52.454Z,15.55
2024-01-10T15:55:22.672Z,15.32
2024-01-10T15:57:52.465Z,15.80
2024-01-10T16:00:25.028Z,15.98
2024-01-10T16:02:54.956Z,15.50
2024-01-10T16:05:26.021Z,15.70
2024-01-10T16:07:56.744Z,15.25
2024-01-10T16:10:29.716Z,14.55
2024-01-10T16:12:59.715Z,15.88
2024-01-10T16:15:32.096Z,27.30
2024-01-10T16:18:02.002Z,19.45
2024-01-10T16:20:31.885Z,16.13
2024-01-10T16:23:02.194Z,16.52
2024-01-10T16:25:32.758Z,16.60
2024-01-10T16:28:02.670Z,15.35
2024-01-10T16:30:35.109Z,16.15
2024-01-10T16:33:05.333Z,16.60
2024-01-10T16:35:35.686Z,17.67
2024-01-10T16:38:05.872Z,16.33
2024-01-10T16:40:35.971Z,16.13
2024-01-10T16:43:07.109Z,17.17
2024-01-10T16:45:39.715Z,17.92
2024-01-10T16:48:11.206Z,17.08
2024-01-10T16:50:42.790Z,16.83
2024-01-10T16:53:12.920Z,17.05
2024-01-10T16:55:49.573Z,17.63
2024-01-10T16:58:22.573Z,18.75
2024-01-10T17:00:58.602Z,18.10
2024-01-10T17:03:28.698Z,19.10
2024-01-10T17:05:58.981Z,18.52
2024-01-10T17:08:31.374Z,18.88
2024-01-10T17:11:06.479Z,19.10
2024-01-10T17:13:37.401Z,21.02
2024-01-10T17:16:10.982Z,18.85
2024-01-10T17:21:28.244Z,18.63
2024-01-10T17:23:59.698Z,19.10
2024-01-10T17:26:30.984Z,19.75
2024-01-10T17:29:21.173Z,21.02
2024-01-10T17:31:53.977Z,21.45
2024-01-10T17:34:24.212Z,19.52
2024-01-10T17:36:54.240Z,19.02
2024-01-10T17:39:25.581Z,20.02
2024-01-10T17:41:55.382Z,20.80
2024-01-10T17:44:25.358Z,21.08
2024-01-10T17:46:57.920Z,19.63
2024-01-10T17:49:28.025Z,21.63
2024-01-10T17:51:58.671Z,21.58
2024-01-10T17:54:29.247Z,20.67
2024-01-10T17:57:00.740Z,20.90
2024-01-10T17:59:30.922Z,21.40
2024-01-10T18:02:03.699Z,21.90
2024-01-10T18:04:34.053Z,21.08
2024-01-10T18:07:04.563Z,19.42
2024-01-10T18:09:34.980Z,18.98
2024-01-10T18:12:05.368Z,20.63
2024-01-10T18:14:35.325Z,22.30
2024-01-10T18:17:08.258Z,19.90
2024-01-10T18:19:42.460Z,19.50
2024-01-10T18:24:47.584Z,19.65
2024-01-10T18:27:23.306Z,18.80
2024-01-10T18:29:58.410Z,19.58
2024-01-10T18:32:32.053Z,20.92
2024-01-10T18:35:05.510Z,20.38
2024-01-10T18:37:37.067Z,23.45
2024-01-10T18:40:10.479Z,22.38
2024-01-10T18:42:40.607Z,22.03
2024-01-10T18:45:13.888Z,23.08
2024-01-10T18:47:50.521Z,21.53
2024-01-10T18:50:20.907Z,22.48
2024-01-10T18:52:51.090Z,21.55
2024-01-10T18:55:22.068Z,22.02
2024-01-10T18:57:54.346Z,21.85
2024-01-10T19:00:28.384Z,22.55
2024-01-10T19:03:01.902Z,21.77
2024-01-10T19:05:35.071Z,21.50
2024-01-10T19:08:08.207Z,23.20
2024-01-10T19:10:42.088Z,23.92
2024-01-10T19:13:11.928Z,22.35
2024-01-10T19:15:42.084Z,22.40
2024-01-10T19:18:17.336Z,23.08
2024-01-10T19:20:47.646Z,22.92
2024-01-10T19:23:19.926Z,23.50
2024-01-10T19:25:50.300Z,22.80
2024-01-10T19:28:23.292Z,22.95
2024-01-10T19:30:57.204Z,24.55
2024-01-10T19:33:30.397Z,24.80
2024-01-10T19:36:00.577Z,25.93
2024-01-10T19:38:31.035Z,22.90
2024-01-10T19:41:03.712Z,27.65
2024-01-10T19:43:33.717Z,26.58
2024-01-10T19:46:03.789Z,29.75
2024-01-10T19:48:36.563Z,29.63
2024-01-10T19:51:06.639Z,24.45
2024-01-10T19:53:36.672Z,26.15
2024-01-10T19:56:06.696Z,25.55
2024-01-10T19:58:38.744Z,24.10
2024-01-10T20:01:08.672Z,23.08
2024-01-10T20:03:41.570Z,40.25
2024-01-10T20:06:11.857Z,23.77
2024-01-10T20:08:41.724Z,25.27
2024-01-10T20:11:11.816Z,24.08
2024-01-10T20:13:42.549Z,24.67
2024-01-10T20:16:12.480Z,26.88
2024-01-10T20:18:44.952Z,28.42
2024-01-10T20:21:18.036Z,31.88
2024-01-10T20:23:49.105Z,33.05
2024-01-10T20:26:19.292Z,27.63
2024-01-10T20:28:49.370Z,26.05
2024-01-10T20:31:21.388Z,28.70
2024-01-10T20:33:54.313Z,29.15
2024-01-10T20:36:24.279Z,30.73
2024-01-10T20:38:54.111Z,27.13
2024-01-10T20:41:23.911Z,25.85
2024-01-10T20:43:53.778Z,31.85
2024-01-10T20:46:23.590Z,31.17
2024-01-10T20:48:58.131Z,32.20
2024-01-10T20:51:27.920Z,34.28
2024-01-10T20:53:57.881Z,29.98
2024-01-10T20:56:27.909Z,28.75
2024-01-10T20:58:58.126Z,28.75
2024-01-10T21:01:28.551Z,27.35
2024-01-10T21:04:01.071Z,27.70
2024-01-10T21:06:30.878Z,29.50
2024-01-10T21:09:00.962Z,27.92
2024-01-10T21:11:30.873Z,26.10
2024-01-10T21:14:03.618Z,27.60
2024-01-10T21:16:33.477Z,28.42
2024-01-10T21:19:13.637Z,29.20
2024-01-10T21:21:43.694Z,28.73
2024-01-10T21:24:13.527Z,54.85
2024-01-10T21:26:44.944Z,31.15
2024-01-10T21:29:15.978Z,28.63
2024-01-10T21:31:45.877Z,28.75
2024-01-10T21:34:18.479Z,34.30
2024-01-10T21:36:48.325Z,32.08
2024-01-10T21:39:18.307Z,28.15
2024-01-10T21:41:48.338Z,27.13
2024-01-10T21:44:18.412Z,26.23
2024-01-10T21:46:48.216Z,25.58
2024-01-10T21:49:20.867Z,26.60
2024-01-10T21:51:50.905Z,27.17
2024-01-10T21:54:21.165Z,27.10
2024-01-10T21:56:51.020Z,28.92
2024-01-10T21:59:21.002Z,26.35
2024-01-10T22:01:51.693Z,27.90
2024-01-10T22:04:24.267Z,27.50
2024-01-10T22:06:54.262Z,26.00
2024-01-10T22:09:24.129Z,26.73
2024-01-10T22:11:54.013Z,26.52
2024-01-10T22:14:24.359Z,26.85
2024-01-10T22:16:54.238Z,26.92
2024-01-10T22:19:26.753Z,28.65
2024-01-10T22:21:56.966Z,27.15
2024-01-10T22:24:27.355Z,29.88
2024-01-10T22:26:57.279Z,28.17
2024-01-10T22:29:29.209Z,27.65
2024-01-10T22:31:59.119Z,26.40
2024-01-10T22:34:32.314Z,25.70
2024-01-10T22:37:02.177Z,26.40
2024-01-10T22:39:34.172Z,26.30
2024-01-10T22:42:03.995Z,26.00
2024-01-10T22:44:33.944Z,27.33
2024-01-10T22:47:03.970Z,27.70
2024-01-10T22:49:36.861Z,25.60
2024-01-10T22:52:07.059Z,26.40
2024-01-10T22:54:37.368Z,25.33
2024-01-10T22:57:07.888Z,26.52
2024-01-10T22:59:38.748Z,25.38
2024-01-10T23:02:09.060Z,25.75
2024-01-10T23:04:41.510Z,25.85
2024-01-10T23:07:11.385Z,26.13
2024-01-10T23:09:41.163Z,24.42
2024-01-10T23:12:11.794Z,25.60
2024-01-10T23:14:41.826Z,24.25
2024-01-10T23:17:11.774Z,25.23
2024-01-10T23:19:44.580Z,24.15
2024-01-10T23:22:14.427Z,23.88
2024-01-10T23:24:44.290Z,22.88
2024-01-10T23:27:14.350Z,22.80
2024-01-10T23:29:44.431Z,22.00
2024-01-10T23:32:14.394Z,21.55
2024-01-10T23:34:46.986Z,21.45
2024-01-10T23:37:18.481Z,20.42
2024-01-10T23:39:48.299Z,24.73
2024-01-10T23:42:18.296Z,23.45
2024-01-10T23:44:48.290Z,24.17
2024-01-10T23:47:18.212Z,23.33
2024-01-10T23:49:51.320Z,23.48
2024-01-10T23:52:21.246Z,22.25
2024-01-10T23:54:52.225Z,23.15
2024-01-10T23:57:22.346Z,22.65
2024-01-10T23:59:52.233Z,21.58
